Rosthern, Canada
Current Conditions -  °F | °C
As of 1:26 AM on Friday 19 Dec 2014 (Local Time) from CYXE Reporting Station
Haze Haze  
Wind Chill: 11°   Ceiling: 400
Heat Index: 18°   Visibility: 4mi
Dew Point: 16°   Wind: 5mph
Humidity: 93%   Direction: 280°W
Pressure: 29.93"   Gusts: NA
Location:  52.65°N, 106.33°W
Report Text: CYXE 190726Z 28004KT 4SM BR OVC004 M08/M09 A2993 RMK ST8 SLP171
Loading
Personal Weather Stations






























Interactive Weather Map New forecast layout! Learn more

10-Day Weather Forecast

Advertisements
Track Severe Weather on mobile